createdAt,value
2022-10-09T00:01:20.700Z,3.78
2022-10-09T00:03:49.520Z,4.45
2022-10-09T00:06:22.309Z,3.65
2022-10-09T00:08:49.038Z,3.67
2022-10-09T00:11:19.398Z,3.95
2022-10-09T00:13:46.350Z,3.90
2022-10-09T00:16:14.567Z,4.18
2022-10-09T00:18:41.742Z,4.13
2022-10-09T00:21:19.043Z,3.75
2022-10-09T00:23:45.486Z,3.72
2022-10-09T00:26:12.103Z,4.50
2022-10-09T00:28:39.085Z,4.55
2022-10-09T00:31:07.615Z,4.70
2022-10-09T00:33:34.720Z,4.30
2022-10-09T00:36:06.413Z,4.95
2022-10-09T00:38:33.232Z,4.18
2022-10-09T00:40:59.968Z,4.57
2022-10-09T00:43:46.185Z,4.53
2022-10-09T00:46:36.758Z,4.32
2022-10-09T00:49:28.099Z,4.83
2022-10-09T00:51:57.288Z,5.07
2022-10-09T00:54:27.794Z,4.93
2022-10-09T00:56:54.767Z,5.07
2022-10-09T00:59:22.483Z,5.22
2022-10-09T01:01:49.015Z,5.00
2022-10-09T01:04:15.651Z,4.90
2022-10-09T01:07:30.149Z,5.28
2022-10-09T01:10:25.983Z,5.03
2022-10-09T01:13:10.213Z,5.32
2022-10-09T01:15:55.554Z,4.70
2022-10-09T01:18:36.737Z,4.93
2022-10-09T01:21:19.636Z,4.57
2022-10-09T01:24:05.143Z,4.93
2022-10-09T01:27:02.391Z,5.10
2022-10-09T01:29:34.265Z,5.72
2022-10-09T01:32:02.557Z,5.50
2022-10-09T01:34:31.053Z,5.97
2022-10-09T01:36:58.921Z,5.88
2022-10-09T01:39:27.789Z,5.72
2022-10-09T01:41:55.277Z,6.80
2022-10-09T01:44:28.224Z,6.47
2022-10-09T01:46:55.138Z,5.75
2022-10-09T01:49:43.921Z,5.90
2022-10-09T01:52:10.247Z,5.65
2022-10-09T01:55:01.286Z,6.15
2022-10-09T01:57:47.749Z,5.40
2022-10-09T02:00:15.114Z,6.13
2022-10-09T02:02:43.453Z,5.53
2022-10-09T02:05:15.062Z,6.30
2022-10-09T02:07:41.465Z,5.50
2022-10-09T02:10:09.296Z,5.97
2022-10-09T02:12:40.381Z,5.82
2022-10-09T02:15:08.665Z,5.72
2022-10-09T02:17:39.183Z,5.18
2022-10-09T02:20:14.253Z,5.68
2022-10-09T02:22:41.145Z,6.10
2022-10-09T02:25:08.028Z,5.25
2022-10-09T02:27:35.666Z,5.30
2022-10-09T02:30:02.829Z,5.15
2022-10-09T02:32:29.283Z,5.45
2022-10-09T02:34:55.895Z,6.00
2022-10-09T02:37:22.536Z,5.40
2022-10-09T02:39:49.148Z,6.38
2022-10-09T02:42:15.706Z,4.80
2022-10-09T02:44:42.396Z,5.72
2022-10-09T02:47:08.781Z,5.97
2022-10-09T02:49:35.138Z,6.20
2022-10-09T02:52:01.625Z,5.68
2022-10-09T02:54:27.976Z,5.20
2022-10-09T02:56:54.389Z,5.90
2022-10-09T02:59:20.740Z,5.63
2022-10-09T03:01:47.433Z,5.28
2022-10-09T03:04:13.961Z,5.28
2022-10-09T03:06:40.357Z,6.20
2022-10-09T03:09:06.715Z,5.25
2022-10-09T03:11:33.122Z,5.10
2022-10-09T03:13:59.477Z,5.30
2022-10-09T03:16:27.318Z,5.20
2022-10-09T03:18:54.087Z,5.63
2022-10-09T03:21:23.328Z,6.10
2022-10-09T03:23:50.304Z,5.65
2022-10-09T03:26:19.612Z,5.70
2022-10-09T03:28:48.269Z,6.32
2022-10-09T03:31:39.711Z,6.15
2022-10-09T03:34:05.452Z,6.57
2022-10-09T03:36:31.833Z,6.40
2022-10-09T03:38:58.192Z,5.80
2022-10-09T03:41:24.576Z,6.43
2022-10-09T03:43:51.032Z,6.32
2022-10-09T03:46:17.446Z,5.88
2022-10-09T03:48:43.872Z,6.05
2022-10-09T03:51:10.270Z,6.07
2022-10-09T03:53:36.825Z,6.15
2022-10-09T03:56:03.305Z,6.70
2022-10-09T03:58:29.813Z,6.60
2022-10-09T04:00:56.248Z,6.72
2022-10-09T04:03:22.989Z,5.43
2022-10-09T04:05:49.923Z,6.07
2022-10-09T04:08:16.282Z,5.82
2022-10-09T04:10:42.645Z,6.15
2022-10-09T04:13:09.000Z,5.78
2022-10-09T04:15:36.612Z,6.25
2022-10-09T04:18:03.724Z,6.72
2022-10-09T04:20:30.121Z,5.95
2022-10-09T04:22:56.508Z,6.03
2022-10-09T04:25:22.942Z,6.05
2022-10-09T04:27:49.308Z,6.22
2022-10-09T04:30:15.740Z,6.35
2022-10-09T04:32:42.163Z,6.82
2022-10-09T04:35:08.799Z,6.30
2022-10-09T04:37:36.611Z,7.07
2022-10-09T04:40:03.812Z,5.47
2022-10-09T04:42:30.413Z,6.30
2022-10-09T04:44:56.798Z,6.90
2022-10-09T04:47:23.204Z,6.30
2022-10-09T04:49:49.912Z,5.93
2022-10-09T04:52:16.274Z,5.90
2022-10-09T04:54:42.678Z,6.45
2022-10-09T04:57:09.068Z,5.82
2022-10-09T04:59:35.594Z,6.05
2022-10-09T05:02:02.111Z,6.97
2022-10-09T05:04:28.602Z,6.35
2022-10-09T05:06:54.988Z,6.80
2022-10-09T05:09:21.340Z,6.63
2022-10-09T05:11:47.718Z,6.65
2022-10-09T05:14:14.242Z,7.28
2022-10-09T05:17:08.451Z,7.28
2022-10-09T05:19:27.025Z,7.38
2022-10-09T05:21:54.137Z,7.32
2022-10-09T05:24:20.742Z,6.22
2022-10-09T05:26:47.201Z,6.95
2022-10-09T05:29:13.588Z,7.20
2022-10-09T05:31:40.061Z,6.47
2022-10-09T05:34:06.579Z,7.15
2022-10-09T05:36:33.032Z,6.97
2022-10-09T05:39:01.134Z,7.15
2022-10-09T05:41:29.448Z,7.95
2022-10-09T05:44:01.029Z,7.13
2022-10-09T05:46:28.433Z,7.15
2022-10-09T05:49:05.442Z,6.70
2022-10-09T05:51:37.886Z,7.50
2022-10-09T05:54:05.829Z,6.80
2022-10-09T05:56:37.777Z,8.95
2022-10-09T05:59:13.824Z,7.35
2022-10-09T06:01:46.554Z,7.68
2022-10-09T06:04:16.105Z,8.23
2022-10-09T06:06:42.818Z,7.75
2022-10-09T06:09:10.565Z,7.95
2022-10-09T06:11:38.952Z,8.25
2022-10-09T06:14:07.601Z,8.40
2022-10-09T06:16:36.592Z,8.80
2022-10-09T06:19:04.505Z,9.38
2022-10-09T06:21:31.518Z,9.07
2022-10-09T06:24:00.232Z,8.75
2022-10-09T06:26:31.139Z,8.60
2022-10-09T06:28:59.599Z,8.57
2022-10-09T06:31:28.626Z,8.98
2022-10-09T06:33:55.510Z,7.57
2022-10-09T06:36:25.118Z,8.00
2022-10-09T06:38:53.667Z,7.38
2022-10-09T06:41:23.253Z,7.32
2022-10-09T06:44:00.925Z,6.68
2022-10-09T06:46:30.182Z,6.57
2022-10-09T06:48:58.854Z,6.80
2022-10-09T06:51:27.856Z,7.22
2022-10-09T06:53:56.713Z,6.35
2022-10-09T06:56:25.032Z,7.00
2022-10-09T06:58:52.140Z,7.07
2022-10-09T07:01:26.778Z,6.97
2022-10-09T07:04:02.501Z,7.88
2022-10-09T07:06:33.510Z,7.07
2022-10-09T07:09:02.508Z,7.75
2022-10-09T07:11:32.077Z,6.93
2022-10-09T07:14:00.702Z,7.35
2022-10-09T07:16:29.427Z,6.63
2022-10-09T07:18:56.271Z,7.25
2022-10-09T07:21:24.037Z,7.35
2022-10-09T07:23:50.585Z,8.10
2022-10-09T07:26:24.232Z,8.90
2022-10-09T07:28:51.461Z,7.53
2022-10-09T07:31:17.932Z,7.18
2022-10-09T07:33:48.309Z,7.07
2022-10-09T07:36:14.996Z,7.35
2022-10-09T07:38:41.421Z,7.03
2022-10-09T07:41:10.769Z,8.25
2022-10-09T07:43:39.509Z,7.28
2022-10-09T07:46:08.568Z,7.75
2022-10-09T07:48:35.517Z,7.25
2022-10-09T07:51:22.579Z,7.05
2022-10-09T07:53:49.769Z,7.88
2022-10-09T07:56:21.582Z,7.13
2022-10-09T07:58:54.027Z,6.45
2022-10-09T08:01:22.161Z,7.03
2022-10-09T08:03:49.009Z,8.00
2022-10-09T08:06:16.571Z,7.72
2022-10-09T08:08:43.432Z,7.30
2022-10-09T08:11:11.718Z,8.45
2022-10-09T08:13:38.486Z,7.35
2022-10-09T08:16:05.986Z,6.97
2022-10-09T08:18:32.916Z,7.30
2022-10-09T08:21:01.844Z,6.40
2022-10-09T08:23:28.753Z,7.70
2022-10-09T08:25:55.177Z,6.13
2022-10-09T08:28:22.201Z,6.47
2022-10-09T08:30:48.823Z,7.75
2022-10-09T08:33:15.845Z,6.85
2022-10-09T08:35:42.301Z,6.68
2022-10-09T08:38:17.714Z,6.50
2022-10-09T08:41:03.229Z,6.50
2022-10-09T08:43:36.483Z,6.55
2022-10-09T08:46:28.929Z,6.88
2022-10-09T08:48:56.055Z,6.32
2022-10-09T08:51:29.480Z,7.13
2022-10-09T08:54:06.438Z,5.72
2022-10-09T08:56:34.182Z,6.60
2022-10-09T08:59:02.011Z,5.65
2022-10-09T09:01:48.142Z,6.40
2022-10-09T09:04:38.173Z,6.75
2022-10-09T09:07:21.181Z,6.15
2022-10-09T09:10:10.981Z,6.07
2022-10-09T09:12:48.881Z,5.85
2022-10-09T09:15:40.168Z,5.32
2022-10-09T09:18:25.662Z,5.28
2022-10-09T09:21:01.925Z,5.60
2022-10-09T09:23:33.861Z,5.68
2022-10-09T09:26:01.096Z,5.63
2022-10-09T09:28:33.362Z,5.25
2022-10-09T09:31:24.521Z,5.07
2022-10-09T09:33:59.704Z,4.95
2022-10-09T09:36:46.370Z,4.85
2022-10-09T09:42:11.895Z,5.18
2022-10-09T09:44:41.768Z,4.72
2022-10-09T09:47:19.838Z,4.28
2022-10-09T09:49:54.684Z,4.80
2022-10-09T09:52:21.199Z,4.35
2022-10-09T09:54:48.898Z,4.47
2022-10-09T09:57:28.937Z,4.78
2022-10-09T10:00:08.789Z,5.40
2022-10-09T10:02:36.424Z,5.05
2022-10-09T10:05:20.543Z,4.50
2022-10-09T10:07:49.946Z,4.18
2022-10-09T10:10:25.945Z,4.45
2022-10-09T10:12:54.834Z,3.90
2022-10-09T10:15:33.105Z,3.90
2022-10-09T10:18:05.903Z,3.72
2022-10-09T10:20:41.877Z,4.00
2022-10-09T10:23:42.753Z,3.80
2022-10-09T10:26:27.229Z,3.70
2022-10-09T10:29:00.159Z,3.40
2022-10-09T10:31:43.074Z,3.65
2022-10-09T10:34:26.868Z,4.63
2022-10-09T10:37:03.350Z,4.10
2022-10-09T10:39:39.850Z,4.10
2022-10-09T10:42:15.148Z,4.22
2022-10-09T10:44:59.384Z,4.88
2022-10-09T10:47:30.643Z,3.90
2022-10-09T10:52:51.300Z,3.88
2022-10-09T10:55:27.669Z,3.55
2022-10-09T10:58:09.416Z,4.28
2022-10-09T11:00:41.129Z,3.70
2022-10-09T11:03:29.499Z,3.90
2022-10-09T11:06:12.455Z,3.55
2022-10-09T11:08:52.306Z,3.05
2022-10-09T11:11:24.691Z,3.42
2022-10-09T11:13:56.857Z,3.10
2022-10-09T11:16:41.329Z,3.33
2022-10-09T11:19:22.014Z,3.13
2022-10-09T11:22:13.685Z,3.30
2022-10-09T11:24:58.152Z,3.17
2022-10-09T11:27:24.489Z,3.25
2022-10-09T11:30:04.743Z,3.10
2022-10-09T11:32:52.667Z,3.05
2022-10-09T11:35:22.540Z,3.58
2022-10-09T11:38:36.693Z,3.22
2022-10-09T11:41:07.333Z,3.55
2022-10-09T11:44:09.471Z,3.30
2022-10-09T11:47:24.156Z,4.22
2022-10-09T11:50:15.064Z,3.58
2022-10-09T11:52:50.542Z,3.83
2022-10-09T11:55:23.627Z,4.13
2022-10-09T11:57:50.262Z,4.10
2022-10-09T12:00:29.567Z,4.28
2022-10-09T12:02:59.836Z,3.78
2022-10-09T12:05:39.048Z,4.00
2022-10-09T12:08:08.568Z,3.65
2022-10-09T12:10:35.613Z,4.15
2022-10-09T12:13:06.362Z,4.10
2022-10-09T12:15:45.339Z,3.60
2022-10-09T12:18:28.332Z,3.85
2022-10-09T12:20:56.397Z,4.53
2022-10-09T12:23:27.918Z,3.65
2022-10-09T12:25:56.113Z,3.67
2022-10-09T12:28:32.040Z,3.80
2022-10-09T12:31:00.088Z,3.65
2022-10-09T12:33:41.524Z,4.03
2022-10-09T12:36:21.694Z,3.92
2022-10-09T12:38:48.102Z,4.10
2022-10-09T12:41:21.871Z,3.95
2022-10-09T12:43:50.960Z,3.90
2022-10-09T12:46:29.565Z,4.00
2022-10-09T12:48:56.598Z,3.63
2022-10-09T12:51:25.679Z,4.40
2022-10-09T12:53:53.356Z,4.20
2022-10-09T12:56:25.370Z,4.53
2022-10-09T12:58:53.210Z,3.97
2022-10-09T13:01:20.628Z,4.10
2022-10-09T13:03:58.670Z,3.83
2022-10-09T13:06:37.935Z,4.22
2022-10-09T13:09:07.538Z,4.10
2022-10-09T13:11:51.209Z,3.80
2022-10-09T13:14:25.325Z,3.92
2022-10-09T13:16:51.899Z,4.53
2022-10-09T13:19:26.724Z,3.83
2022-10-09T13:22:20.791Z,5.18
2022-10-09T13:24:50.769Z,5.25
2022-10-09T13:27:19.485Z,4.47
2022-10-09T13:29:47.121Z,4.47
2022-10-09T13:32:15.859Z,4.13
2022-10-09T13:34:42.809Z,5.15
2022-10-09T13:37:17.841Z,5.40
2022-10-09T13:39:44.298Z,4.53
2022-10-09T13:42:15.330Z,4.80
2022-10-09T13:44:41.927Z,5.40
2022-10-09T13:47:08.621Z,4.82
2022-10-09T13:49:35.033Z,4.43
2022-10-09T13:52:01.461Z,5.13
2022-10-09T13:54:27.943Z,4.60
2022-10-09T13:56:54.476Z,4.32
2022-10-09T13:59:20.869Z,4.30
2022-10-09T14:01:47.406Z,4.70
2022-10-09T14:04:14.127Z,4.78
2022-10-09T14:06:40.490Z,5.20
2022-10-09T14:09:07.531Z,4.65
2022-10-09T14:11:34.376Z,5.32
2022-10-09T14:14:00.856Z,4.50
2022-10-09T14:16:28.881Z,5.45
2022-10-09T14:19:01.030Z,4.88
2022-10-09T14:21:27.553Z,5.47
2022-10-09T14:23:58.404Z,5.05
2022-10-09T14:26:27.006Z,4.50
2022-10-09T14:28:54.805Z,4.68
2022-10-09T14:31:21.208Z,4.88
2022-10-09T14:33:48.546Z,5.25
2022-10-09T14:36:18.637Z,4.25
2022-10-09T14:38:45.811Z,5.32
2022-10-09T14:41:14.037Z,5.07
2022-10-09T14:43:40.639Z,5.40
2022-10-09T14:46:12.023Z,6.00
2022-10-09T14:48:39.338Z,5.65
2022-10-09T14:51:15.096Z,5.68
2022-10-09T14:53:42.086Z,4.97
2022-10-09T14:56:18.550Z,5.85
2022-10-09T14:58:45.914Z,5.57
2022-10-09T15:01:14.356Z,5.95
2022-10-09T15:03:41.504Z,5.80
2022-10-09T15:06:10.029Z,6.82
2022-10-09T15:08:38.489Z,5.10
2022-10-09T15:11:05.366Z,4.85
2022-10-09T15:13:34.917Z,4.80
2022-10-09T15:16:07.557Z,5.15
2022-10-09T15:18:34.580Z,4.78
2022-10-09T15:21:01.110Z,5.20
2022-10-09T15:23:28.243Z,5.03
2022-10-09T15:25:57.226Z,5.18
2022-10-09T15:28:24.277Z,5.47
2022-10-09T15:30:53.341Z,5.30
2022-10-09T15:33:22.106Z,5.00
2022-10-09T15:35:49.917Z,5.05
2022-10-09T15:38:18.910Z,4.30
2022-10-09T15:40:48.292Z,4.90
2022-10-09T15:43:16.907Z,4.97
2022-10-09T15:45:43.606Z,4.70
2022-10-09T15:48:22.624Z,5.65
2022-10-09T15:50:52.024Z,4.80
2022-10-09T15:53:20.710Z,5.03
2022-10-09T15:55:49.986Z,4.55
2022-10-09T15:58:16.796Z,4.53
2022-10-09T16:00:49.867Z,4.97
2022-10-09T16:03:18.040Z,4.43
2022-10-09T16:05:48.722Z,4.60
2022-10-09T16:08:16.384Z,5.18
2022-10-09T16:10:48.583Z,4.47
2022-10-09T16:13:15.589Z,4.93
2022-10-09T16:15:43.103Z,3.97
2022-10-09T16:18:10.154Z,3.85
2022-10-09T16:20:38.588Z,3.97
2022-10-09T16:23:05.529Z,4.53
2022-10-09T16:25:32.018Z,5.10
2022-10-09T16:27:58.442Z,5.78
2022-10-09T16:30:25.064Z,4.38
2022-10-09T16:32:52.110Z,4.53
2022-10-09T16:35:18.899Z,4.50
2022-10-09T16:37:45.486Z,4.43
2022-10-09T16:40:11.917Z,4.40
2022-10-09T16:42:38.362Z,4.63
2022-10-09T16:45:05.343Z,4.80
2022-10-09T16:47:33.293Z,4.28
2022-10-09T16:49:59.731Z,4.50
2022-10-09T16:52:26.107Z,5.97
2022-10-09T16:54:54.939Z,4.80
2022-10-09T16:57:23.378Z,5.72
2022-10-09T16:59:49.768Z,5.00
2022-10-09T17:02:16.394Z,5.05
2022-10-09T17:04:42.886Z,4.60
2022-10-09T17:07:10.762Z,5.13
2022-10-09T17:09:37.360Z,4.63
2022-10-09T17:12:05.115Z,5.45
2022-10-09T17:14:31.575Z,5.05
2022-10-09T17:16:57.985Z,5.80
2022-10-09T17:19:24.383Z,5.13
2022-10-09T17:21:50.885Z,5.55
2022-10-09T17:24:17.356Z,4.90
2022-10-09T17:26:43.814Z,5.72
2022-10-09T17:29:10.562Z,5.20
2022-10-09T17:31:36.916Z,5.50
2022-10-09T17:34:04.262Z,5.63
2022-10-09T17:36:36.585Z,6.32
2022-10-09T17:39:04.410Z,4.95
2022-10-09T17:41:31.381Z,5.97
2022-10-09T17:43:58.917Z,5.22
2022-10-09T17:46:27.279Z,5.05
2022-10-09T17:48:53.727Z,5.05
2022-10-09T17:51:23.799Z,5.35
2022-10-09T17:53:50.239Z,5.57
2022-10-09T17:56:17.868Z,5.75
2022-10-09T17:58:47.305Z,5.05
2022-10-09T18:01:14.690Z,5.22
2022-10-09T18:03:42.090Z,5.35
2022-10-09T18:06:11.810Z,5.43
2022-10-09T18:08:39.470Z,4.53
2022-10-09T18:11:08.660Z,5.07
2022-10-09T18:13:36.848Z,5.43
2022-10-09T18:16:08.460Z,4.75
2022-10-09T18:18:35.293Z,5.10
2022-10-09T18:21:04.041Z,5.80
2022-10-09T18:23:30.529Z,5.18
2022-10-09T18:25:57.037Z,5.65
2022-10-09T18:28:23.624Z,5.38
2022-10-09T18:30:50.228Z,5.47
2022-10-09T18:33:16.597Z,5.28
2022-10-09T18:35:42.972Z,5.20
2022-10-09T18:38:10.539Z,4.90
2022-10-09T18:40:45.527Z,5.78
2022-10-09T18:43:12.351Z,5.80
2022-10-09T18:45:44.748Z,5.43
2022-10-09T18:48:11.641Z,5.47
2022-10-09T18:50:38.228Z,5.38
2022-10-09T18:53:05.437Z,5.63
2022-10-09T18:55:32.184Z,5.95
2022-10-09T18:57:59.482Z,6.00
2022-10-09T19:00:26.153Z,5.72
2022-10-09T19:02:52.551Z,6.72
2022-10-09T19:05:18.925Z,6.00
2022-10-09T19:07:45.366Z,6.18
2022-10-09T19:10:11.746Z,5.28
2022-10-09T19:12:38.161Z,5.18
2022-10-09T19:15:09.611Z,5.78
2022-10-09T19:17:38.242Z,5.38
2022-10-09T19:20:05.158Z,5.30
2022-10-09T19:22:31.539Z,6.00
2022-10-09T19:24:58.168Z,6.13
2022-10-09T19:27:26.573Z,5.85
2022-10-09T19:29:53.848Z,5.10
2022-10-09T19:32:23.882Z,5.25
2022-10-09T19:34:50.568Z,5.82
2022-10-09T19:37:17.044Z,5.80
2022-10-09T19:39:48.285Z,6.13
2022-10-09T19:44:45.869Z,5.93
2022-10-09T19:47:13.872Z,5.82
2022-10-09T19:49:40.800Z,6.28
2022-10-09T19:52:07.724Z,6.28
2022-10-09T19:54:35.093Z,6.50
2022-10-09T19:57:02.136Z,5.50
2022-10-09T19:59:28.557Z,5.70
2022-10-09T20:01:57.506Z,5.80
2022-10-09T20:04:24.255Z,5.85
2022-10-09T20:06:51.795Z,5.35
2022-10-09T20:09:20.629Z,5.40
2022-10-09T20:11:47.856Z,6.22
2022-10-09T20:14:14.270Z,6.43
2022-10-09T20:16:40.688Z,5.82
2022-10-09T20:19:07.578Z,10.23
2022-10-09T20:21:34.878Z,8.52
2022-10-09T20:24:01.420Z,6.45
2022-10-09T20:26:29.750Z,8.90
2022-10-09T20:28:56.400Z,6.70
2022-10-09T20:31:25.652Z,5.63
2022-10-09T20:33:54.270Z,6.55
2022-10-09T20:36:24.525Z,5.93
2022-10-09T20:38:50.951Z,6.20
2022-10-09T20:41:17.759Z,6.35
2022-10-09T20:43:44.886Z,5.93
2022-10-09T20:46:14.540Z,6.38
2022-10-09T20:48:42.480Z,6.20
2022-10-09T20:51:09.731Z,6.40
2022-10-09T20:53:36.192Z,6.88
2022-10-09T20:56:09.122Z,6.55
2022-10-09T20:58:35.886Z,6.20
2022-10-09T21:01:07.423Z,6.90
2022-10-09T21:03:35.471Z,6.00
2022-10-09T21:06:05.507Z,6.20
2022-10-09T21:08:32.426Z,6.93
2022-10-09T21:10:58.898Z,5.88
2022-10-09T21:13:25.382Z,6.00
2022-10-09T21:15:51.816Z,6.10
2022-10-09T21:18:18.988Z,6.38
2022-10-09T21:20:47.298Z,6.47
2022-10-09T21:23:15.093Z,6.60
2022-10-09T21:25:52.932Z,5.47
2022-10-09T21:28:20.828Z,5.30
2022-10-09T21:30:47.317Z,6.20
2022-10-09T21:33:14.485Z,5.38
2022-10-09T21:35:43.950Z,5.70
2022-10-09T21:38:13.048Z,5.15
2022-10-09T21:40:40.302Z,5.15
2022-10-09T21:43:07.393Z,6.03
2022-10-09T21:45:34.145Z,5.63
2022-10-09T21:48:00.563Z,5.35
2022-10-09T21:50:27.005Z,5.78
2022-10-09T21:52:53.501Z,5.45
2022-10-09T21:55:20.077Z,5.63
2022-10-09T21:57:46.506Z,5.65
2022-10-09T22:00:13.218Z,5.72
2022-10-09T22:02:39.566Z,5.53
2022-10-09T22:05:06.279Z,5.38
2022-10-09T22:07:32.995Z,5.78
2022-10-09T22:09:59.552Z,6.43
2022-10-09T22:12:25.963Z,6.00
2022-10-09T22:14:52.368Z,5.93
2022-10-09T22:17:18.813Z,5.50
2022-10-09T22:19:45.169Z,5.68
2022-10-09T22:22:11.612Z,7.25
2022-10-09T22:24:38.011Z,6.93
2022-10-09T22:27:04.466Z,7.30
2022-10-09T22:29:31.068Z,8.25
2022-10-09T22:31:57.412Z,6.55
2022-10-09T22:34:23.864Z,5.45
2022-10-09T22:36:50.296Z,6.43
2022-10-09T22:39:16.666Z,5.78
2022-10-09T22:41:43.085Z,6.28
2022-10-09T22:44:10.928Z,5.68
2022-10-09T22:46:40.276Z,6.13
2022-10-09T22:49:10.497Z,5.68
2022-10-09T22:51:36.872Z,6.75
2022-10-09T22:54:03.452Z,5.95
2022-10-09T22:56:33.061Z,6.43
2022-10-09T22:58:59.871Z,5.90
2022-10-09T23:01:35.888Z,5.85
2022-10-09T23:04:05.172Z,6.40
2022-10-09T23:06:32.567Z,6.10
2022-10-09T23:09:00.195Z,6.13
2022-10-09T23:11:27.119Z,6.15
2022-10-09T23:13:55.961Z,5.25
2022-10-09T23:16:23.130Z,5.80
2022-10-09T23:18:50.166Z,6.07
2022-10-09T23:21:19.634Z,6.10
2022-10-09T23:23:47.571Z,5.75
2022-10-09T23:26:17.408Z,6.18
2022-10-09T23:28:48.273Z,6.20
2022-10-09T23:31:15.188Z,5.93
2022-10-09T23:33:43.095Z,7.20
2022-10-09T23:36:11.939Z,6.60
2022-10-09T23:38:38.874Z,7.63
2022-10-09T23:41:07.949Z,7.60
2022-10-09T23:43:36.071Z,6.72
2022-10-09T23:46:04.876Z,7.53
2022-10-09T23:48:31.775Z,7.60
2022-10-09T23:50:58.734Z,7.10
2022-10-09T23:53:26.838Z,7.88
2022-10-09T23:55:54.066Z,7.65
2022-10-09T23:58:21.616Z,8.10
